createdAt,value
2022-11-26T00:01:22.060Z,7.10
2022-11-26T00:03:52.378Z,7.20
2022-11-26T00:06:28.891Z,7.20
2022-11-26T00:08:59.814Z,7.10
2022-11-26T00:11:28.619Z,7.20
2022-11-26T00:13:56.747Z,7.20
2022-11-26T00:16:25.422Z,7.00
2022-11-26T00:18:53.728Z,7.00
2022-11-26T00:21:24.404Z,7.00
2022-11-26T00:23:53.261Z,7.10
2022-11-26T00:26:25.151Z,7.00
2022-11-26T00:28:55.991Z,7.00
2022-11-26T00:31:25.186Z,7.00
2022-11-26T00:33:53.699Z,7.00
2022-11-26T00:36:25.333Z,6.80
2022-11-26T00:38:56.269Z,6.90
2022-11-26T00:41:30.662Z,6.90
2022-11-26T00:43:59.511Z,6.80
2022-11-26T00:46:27.680Z,6.70
2022-11-26T00:48:56.208Z,6.80
2022-11-26T00:51:26.604Z,6.80
2022-11-26T00:53:56.520Z,6.70
2022-11-26T00:56:26.967Z,6.70
2022-11-26T00:58:55.377Z,6.80
2022-11-26T01:01:25.555Z,6.80
2022-11-26T01:03:54.563Z,6.80
2022-11-26T01:06:25.134Z,6.90
2022-11-26T01:08:53.435Z,6.90
2022-11-26T01:11:24.279Z,7.00
2022-11-26T01:13:55.743Z,6.90
2022-11-26T01:16:27.226Z,7.00
2022-11-26T01:18:58.192Z,7.00
2022-11-26T01:21:29.583Z,6.90
2022-11-26T01:23:58.309Z,6.90
2022-11-26T01:26:29.029Z,6.90
2022-11-26T01:28:58.890Z,6.90
2022-11-26T01:31:28.823Z,7.10
2022-11-26T01:33:58.205Z,7.00
2022-11-26T01:36:29.635Z,7.00
2022-11-26T01:38:59.959Z,7.00
2022-11-26T01:41:44.329Z,7.00
2022-11-26T01:44:20.179Z,7.00
2022-11-26T01:46:49.297Z,7.10
2022-11-26T01:49:20.541Z,7.20
2022-11-26T01:51:52.069Z,7.20
2022-11-26T01:54:20.393Z,7.00
2022-11-26T01:56:53.254Z,7.00
2022-11-26T01:59:27.548Z,6.90
2022-11-26T02:01:58.991Z,6.80
2022-11-26T02:04:30.699Z,6.70
2022-11-26T02:06:59.680Z,6.70
2022-11-26T02:09:29.961Z,6.60
2022-11-26T02:11:59.073Z,6.60
2022-11-26T02:14:32.989Z,6.40
2022-11-26T02:17:16.035Z,6.40
2022-11-26T02:20:20.187Z,6.30
2022-11-26T02:23:08.590Z,6.10
2022-11-26T02:26:09.727Z,6.10
2022-11-26T02:29:01.671Z,6.00
2022-11-26T02:31:39.664Z,6.00
2022-11-26T02:34:16.356Z,5.90
2022-11-26T02:36:50.009Z,5.90
2022-11-26T02:39:18.959Z,5.90
2022-11-26T02:41:50.469Z,6.00
2022-11-26T02:44:23.020Z,5.90
2022-11-26T02:46:56.974Z,5.70
2022-11-26T02:49:25.353Z,5.70
2022-11-26T02:51:55.584Z,5.80
2022-11-26T02:54:25.899Z,5.80
2022-11-26T02:56:55.655Z,5.80
2022-11-26T02:59:24.006Z,5.80
2022-11-26T03:01:58.385Z,5.90
2022-11-26T03:04:32.225Z,5.90
2022-11-26T03:07:05.740Z,5.90
2022-11-26T03:09:42.130Z,5.80
2022-11-26T03:12:10.860Z,5.90
2022-11-26T03:14:39.093Z,5.90
2022-11-26T03:17:08.737Z,5.90
2022-11-26T03:19:37.433Z,5.90
2022-11-26T03:22:05.796Z,6.00
2022-11-26T03:24:34.214Z,6.00
2022-11-26T03:27:03.081Z,6.10
2022-11-26T03:29:31.303Z,6.00
2022-11-26T03:31:59.660Z,6.10
2022-11-26T03:34:29.397Z,6.00
2022-11-26T03:36:57.554Z,5.90
2022-11-26T03:39:25.653Z,6.00
2022-11-26T03:41:54.195Z,6.00
2022-11-26T03:44:22.461Z,6.00
2022-11-26T03:46:50.566Z,6.10
2022-11-26T03:49:18.937Z,6.20
2022-11-26T03:51:48.448Z,6.20
2022-11-26T03:54:16.955Z,6.20
2022-11-26T03:56:45.400Z,6.30
2022-11-26T03:59:13.596Z,6.30
2022-11-26T04:01:41.960Z,6.30
2022-11-26T04:04:10.857Z,6.40
2022-11-26T04:06:39.295Z,6.30
2022-11-26T04:09:08.827Z,6.10
2022-11-26T04:11:37.415Z,6.10
2022-11-26T04:14:05.950Z,6.10
2022-11-26T04:16:34.238Z,6.10
2022-11-26T04:19:02.393Z,6.10
2022-11-26T04:21:30.818Z,6.20
2022-11-26T04:23:58.962Z,6.10
2022-11-26T04:26:28.532Z,6.00
2022-11-26T04:28:56.989Z,6.00
2022-11-26T04:31:25.346Z,5.90
2022-11-26T04:33:53.714Z,5.90
2022-11-26T04:36:22.395Z,5.90
2022-11-26T04:38:50.519Z,5.80
2022-11-26T04:41:19.101Z,5.90
2022-11-26T04:43:48.848Z,5.90
2022-11-26T04:46:16.983Z,6.00
2022-11-26T04:48:45.436Z,6.10
2022-11-26T04:51:13.756Z,6.10
2022-11-26T04:53:41.992Z,6.10
2022-11-26T04:56:10.394Z,6.10
2022-11-26T04:58:39.031Z,6.00
2022-11-26T05:01:08.776Z,6.10
2022-11-26T05:03:37.579Z,6.10
2022-11-26T05:06:06.101Z,6.10
2022-11-26T05:08:34.247Z,6.00
2022-11-26T05:11:03.300Z,5.90
2022-11-26T05:13:31.698Z,5.90
2022-11-26T05:15:59.918Z,6.00
2022-11-26T05:18:29.715Z,6.00
2022-11-26T05:20:57.851Z,6.10
2022-11-26T05:23:26.116Z,6.30
2022-11-26T05:25:54.497Z,6.20
2022-11-26T05:28:23.025Z,6.20
2022-11-26T05:30:51.355Z,6.10
2022-11-26T05:33:19.615Z,6.10
2022-11-26T05:35:49.215Z,6.10
2022-11-26T05:38:17.377Z,6.30
2022-11-26T05:40:46.317Z,6.20
2022-11-26T05:43:14.534Z,6.30
2022-11-26T05:45:43.222Z,6.30
2022-11-26T05:48:11.664Z,6.30
2022-11-26T05:50:40.298Z,6.30
2022-11-26T05:53:09.957Z,6.30
2022-11-26T05:55:38.411Z,6.30
2022-11-26T05:58:09.681Z,6.20
2022-11-26T06:00:37.821Z,6.20
2022-11-26T06:03:06.204Z,6.20
2022-11-26T06:05:34.447Z,6.30
2022-11-26T06:08:02.690Z,6.30
2022-11-26T06:10:32.610Z,6.30
2022-11-26T06:13:01.714Z,6.20
2022-11-26T06:15:30.016Z,6.30
2022-11-26T06:17:58.367Z,6.30
2022-11-26T06:20:26.459Z,6.40
2022-11-26T06:22:54.629Z,6.40
2022-11-26T06:25:22.940Z,6.30
2022-11-26T06:27:53.294Z,6.40
2022-11-26T06:30:21.831Z,6.40
2022-11-26T06:32:51.364Z,6.40
2022-11-26T06:35:19.487Z,6.50
2022-11-26T06:37:47.840Z,6.50
2022-11-26T06:40:18.884Z,6.50
2022-11-26T06:42:50.140Z,6.50
2022-11-26T06:45:20.113Z,6.40
2022-11-26T06:47:48.799Z,6.40
2022-11-26T06:50:18.678Z,6.40
2022-11-26T06:52:47.279Z,6.50
2022-11-26T06:55:15.392Z,6.50
2022-11-26T06:57:43.615Z,6.60
2022-11-26T07:00:13.419Z,6.60
2022-11-26T07:02:43.438Z,6.50
2022-11-26T07:05:11.800Z,6.50
2022-11-26T07:07:40.821Z,6.50
2022-11-26T07:10:09.652Z,6.60
2022-11-26T07:12:38.062Z,6.60
2022-11-26T07:15:07.293Z,6.70
2022-11-26T07:17:35.808Z,6.60
2022-11-26T07:20:06.022Z,6.60
2022-11-26T07:22:36.073Z,6.70
2022-11-26T07:25:09.357Z,6.60
2022-11-26T07:27:41.246Z,6.60
2022-11-26T07:30:10.698Z,6.60
2022-11-26T07:32:40.260Z,6.50
2022-11-26T07:35:10.087Z,6.50
2022-11-26T07:37:38.209Z,6.50
2022-11-26T07:40:08.020Z,6.60
2022-11-26T07:42:36.695Z,6.50
2022-11-26T07:45:05.306Z,6.60
2022-11-26T07:47:33.543Z,6.60
2022-11-26T07:50:02.304Z,6.70
2022-11-26T07:52:31.851Z,6.80
2022-11-26T07:55:00.503Z,6.70
2022-11-26T07:57:29.453Z,6.60
2022-11-26T07:59:57.596Z,6.70
2022-11-26T08:02:27.135Z,6.70
2022-11-26T08:04:55.336Z,6.80
2022-11-26T08:07:29.055Z,6.80
2022-11-26T08:09:59.226Z,6.90
2022-11-26T08:12:27.607Z,6.90
2022-11-26T08:14:55.755Z,6.90
2022-11-26T08:17:24.158Z,6.90
2022-11-26T08:19:52.255Z,7.00
2022-11-26T08:22:20.407Z,7.10
2022-11-26T08:24:49.025Z,7.20
2022-11-26T08:27:18.573Z,7.10
2022-11-26T08:29:46.644Z,7.20
2022-11-26T08:32:15.362Z,7.20
2022-11-26T08:34:43.626Z,7.30
2022-11-26T08:37:11.727Z,7.30
2022-11-26T08:39:40.534Z,7.40
2022-11-26T08:42:08.806Z,7.30
2022-11-26T08:44:38.617Z,7.50
2022-11-26T08:47:07.088Z,7.60
2022-11-26T08:49:35.232Z,7.70
2022-11-26T08:52:03.866Z,7.60
2022-11-26T08:54:32.398Z,7.70
2022-11-26T08:57:00.665Z,7.80
2022-11-26T08:59:28.804Z,7.90
2022-11-26T09:01:58.531Z,7.90
2022-11-26T09:04:26.919Z,8.00
2022-11-26T09:06:55.110Z,8.10
2022-11-26T09:09:23.295Z,8.10
2022-11-26T09:11:54.100Z,8.10
2022-11-26T09:14:25.992Z,8.10
2022-11-26T09:16:55.078Z,8.20
2022-11-26T09:19:25.025Z,8.30
2022-11-26T09:21:53.393Z,8.20
2022-11-26T09:24:23.090Z,8.40
2022-11-26T09:26:51.383Z,8.40
2022-11-26T09:29:22.320Z,8.50
2022-11-26T09:34:41.932Z,8.90
2022-11-26T09:37:10.520Z,9.10
2022-11-26T09:39:38.748Z,9.30
2022-11-26T09:42:08.913Z,9.50
2022-11-26T09:44:54.198Z,9.70
2022-11-26T09:47:23.908Z,9.90
2022-11-26T09:50:00.626Z,10.10
2022-11-26T09:52:34.953Z,10.20
2022-11-26T09:55:09.366Z,10.50
2022-11-26T09:57:43.119Z,10.70
2022-11-26T10:00:17.448Z,10.90
2022-11-26T10:02:45.915Z,11.00
2022-11-26T10:05:20.999Z,11.10
2022-11-26T10:08:01.640Z,11.30
2022-11-26T10:10:38.139Z,11.60
2022-11-26T10:13:19.384Z,11.90
2022-11-26T10:15:59.240Z,12.10
2022-11-26T10:18:39.084Z,12.20
2022-11-26T10:21:32.303Z,12.30
2022-11-26T10:24:07.162Z,12.40
2022-11-26T10:26:39.410Z,12.60
2022-11-26T10:29:22.438Z,12.60
2022-11-26T10:31:53.933Z,12.70
2022-11-26T10:34:31.304Z,12.70
2022-11-26T10:37:02.912Z,12.70
2022-11-26T10:39:31.488Z,12.60
2022-11-26T10:42:05.862Z,12.40
2022-11-26T10:44:40.765Z,12.30
2022-11-26T10:47:24.518Z,12.20
2022-11-26T10:49:54.322Z,12.30
2022-11-26T10:52:27.979Z,12.20
2022-11-26T10:55:17.393Z,12.10
2022-11-26T10:57:50.289Z,12.20
2022-11-26T11:00:40.235Z,12.10
2022-11-26T11:03:17.512Z,12.00
2022-11-26T11:05:46.799Z,12.20
2022-11-26T11:08:29.810Z,12.20
2022-11-26T11:11:00.512Z,12.20
2022-11-26T11:13:42.278Z,12.10
2022-11-26T11:16:12.566Z,12.00
2022-11-26T11:18:50.339Z,12.00
2022-11-26T11:21:21.238Z,12.10
2022-11-26T11:24:08.192Z,12.00
2022-11-26T11:26:43.581Z,12.10
2022-11-26T11:29:27.632Z,12.10
2022-11-26T11:31:57.628Z,12.00
2022-11-26T11:34:31.778Z,12.00
2022-11-26T11:37:02.460Z,12.10
2022-11-26T11:39:33.957Z,12.30
2022-11-26T11:42:04.190Z,12.50
2022-11-26T11:44:39.600Z,12.50
2022-11-26T11:47:31.182Z,12.60
2022-11-26T11:50:17.879Z,12.70
2022-11-26T11:53:11.596Z,12.90
2022-11-26T11:55:52.312Z,13.20
2022-11-26T11:58:55.654Z,13.40
2022-11-26T12:01:37.234Z,13.50
2022-11-26T12:04:39.465Z,13.60
2022-11-26T12:07:31.712Z,13.60
2022-11-26T12:10:10.023Z,13.60
2022-11-26T12:12:44.579Z,13.70
2022-11-26T12:15:22.792Z,13.70
2022-11-26T12:17:56.732Z,13.70
2022-11-26T12:20:33.147Z,13.60
2022-11-26T12:23:22.622Z,13.50
2022-11-26T12:25:55.330Z,13.60
2022-11-26T12:28:29.303Z,13.80
2022-11-26T12:31:02.729Z,13.70
2022-11-26T12:33:35.196Z,13.80
2022-11-26T12:36:11.682Z,13.70
2022-11-26T12:38:46.151Z,13.60
2022-11-26T12:41:20.479Z,13.50
2022-11-26T12:43:56.282Z,13.40
2022-11-26T12:46:28.733Z,13.30
2022-11-26T12:49:04.824Z,13.30
2022-11-26T12:51:38.260Z,13.30
2022-11-26T12:54:16.542Z,13.10
2022-11-26T12:56:54.814Z,13.00
2022-11-26T12:59:30.739Z,13.10
2022-11-26T13:01:59.161Z,13.10
2022-11-26T13:04:37.730Z,13.00
2022-11-26T13:07:21.417Z,13.10
2022-11-26T13:10:02.560Z,13.20
2022-11-26T13:12:41.455Z,13.20
2022-11-26T13:15:19.096Z,13.20
2022-11-26T13:17:49.316Z,13.10
2022-11-26T13:20:46.898Z,13.10
2022-11-26T13:23:29.887Z,13.00
2022-11-26T13:26:17.599Z,12.90
2022-11-26T13:29:10.945Z,12.90
2022-11-26T13:31:58.646Z,12.80
2022-11-26T13:34:38.586Z,12.60
2022-11-26T13:37:42.462Z,12.60
2022-11-26T13:40:29.308Z,12.50
2022-11-26T13:43:35.469Z,12.40
2022-11-26T13:46:21.883Z,12.30
2022-11-26T13:48:58.571Z,12.20
2022-11-26T13:51:32.917Z,12.10
2022-11-26T13:54:07.587Z,12.20
2022-11-26T13:56:38.537Z,12.30
2022-11-26T13:59:15.289Z,12.10
2022-11-26T14:01:43.870Z,12.00
2022-11-26T14:04:15.055Z,12.00
2022-11-26T14:07:17.825Z,11.80
2022-11-26T14:09:54.956Z,11.70
2022-11-26T14:12:25.086Z,11.70
2022-11-26T14:14:53.369Z,11.70
2022-11-26T14:17:31.076Z,11.60
2022-11-26T14:20:10.394Z,11.50
2022-11-26T14:22:39.583Z,11.40
2022-11-26T14:25:11.174Z,11.40
2022-11-26T14:27:43.719Z,11.40
2022-11-26T14:30:28.477Z,11.30
2022-11-26T14:33:02.367Z,11.20
2022-11-26T14:35:34.559Z,11.20
2022-11-26T14:38:04.818Z,11.10
2022-11-26T14:40:35.045Z,11.00
2022-11-26T14:43:13.993Z,10.80
2022-11-26T14:45:43.262Z,10.80
2022-11-26T14:48:24.058Z,10.80
2022-11-26T14:50:54.888Z,10.80
2022-11-26T14:53:26.492Z,10.80
2022-11-26T14:55:55.378Z,10.90
2022-11-26T14:58:32.067Z,10.80
2022-11-26T15:01:09.122Z,10.70
2022-11-26T15:03:37.605Z,10.70
2022-11-26T15:06:07.817Z,10.50
2022-11-26T15:08:35.933Z,10.50
2022-11-26T15:11:07.868Z,10.40
2022-11-26T15:13:39.525Z,10.30
2022-11-26T15:16:26.868Z,10.30
2022-11-26T15:18:56.787Z,10.20
2022-11-26T15:21:29.247Z,10.20
2022-11-26T15:24:00.173Z,10.20
2022-11-26T15:26:34.474Z,10.10
2022-11-26T15:29:02.952Z,10.00
2022-11-26T15:31:41.874Z,9.80
2022-11-26T15:34:13.444Z,9.80
2022-11-26T15:36:43.593Z,9.90
2022-11-26T15:39:26.598Z,9.90
2022-11-26T15:41:57.719Z,9.90
2022-11-26T15:44:28.520Z,9.90
2022-11-26T15:47:00.843Z,9.80
2022-11-26T15:49:33.066Z,9.80
2022-11-26T15:52:05.685Z,9.80
2022-11-26T15:55:04.495Z,9.70
2022-11-26T15:57:29.641Z,9.70
2022-11-26T16:00:01.226Z,9.70
2022-11-26T16:02:31.445Z,9.60
2022-11-26T16:05:00.295Z,9.60
2022-11-26T16:07:31.264Z,9.70
2022-11-26T16:10:22.615Z,9.50
2022-11-26T16:13:23.977Z,9.50
2022-11-26T16:15:57.872Z,9.30
2022-11-26T16:18:37.554Z,9.30
2022-11-26T16:21:08.479Z,9.20
2022-11-26T16:23:38.418Z,9.20
2022-11-26T16:26:17.673Z,9.20
2022-11-26T16:28:47.349Z,9.10
2022-11-26T16:31:16.744Z,9.00
2022-11-26T16:33:45.820Z,9.00
2022-11-26T16:36:22.814Z,8.90
2022-11-26T16:38:53.388Z,9.00
2022-11-26T16:41:23.118Z,8.90
2022-11-26T16:43:51.400Z,8.90
2022-11-26T16:46:23.595Z,8.90
2022-11-26T16:48:52.607Z,8.90
2022-11-26T16:51:22.029Z,8.90
2022-11-26T16:53:51.744Z,8.90
2022-11-26T16:56:23.523Z,9.00
2022-11-26T16:58:53.006Z,8.90
2022-11-26T17:01:21.417Z,8.90
2022-11-26T17:03:49.954Z,8.70
2022-11-26T17:06:24.757Z,8.80
2022-11-26T17:08:55.575Z,8.80
2022-11-26T17:11:24.371Z,8.70
2022-11-26T17:13:52.981Z,8.70
2022-11-26T17:16:24.103Z,8.50
2022-11-26T17:18:52.423Z,8.60
2022-11-26T17:21:20.942Z,8.50
2022-11-26T17:23:49.510Z,8.50
2022-11-26T17:26:21.755Z,8.60
2022-11-26T17:28:50.439Z,8.50
2022-11-26T17:31:19.318Z,8.50
2022-11-26T17:33:47.891Z,8.50
2022-11-26T17:36:17.868Z,8.40
2022-11-26T17:38:47.062Z,8.40
2022-11-26T17:41:16.375Z,8.40
2022-11-26T17:43:45.917Z,8.40
2022-11-26T17:46:19.418Z,8.40
2022-11-26T17:48:47.703Z,8.30
2022-11-26T17:51:16.630Z,8.40
2022-11-26T17:53:45.580Z,8.40
2022-11-26T17:56:19.167Z,8.40
2022-11-26T17:58:49.074Z,8.40
2022-11-26T18:01:18.478Z,8.40
2022-11-26T18:03:47.772Z,8.30
2022-11-26T18:06:17.864Z,8.20
2022-11-26T18:08:46.644Z,8.20
2022-11-26T18:11:16.787Z,8.10
2022-11-26T18:13:46.205Z,8.00
2022-11-26T18:16:15.925Z,8.00
2022-11-26T18:18:44.287Z,8.00
2022-11-26T18:21:13.699Z,8.10
2022-11-26T18:23:47.948Z,8.00
2022-11-26T18:26:18.612Z,8.00
2022-11-26T18:28:47.129Z,8.00
2022-11-26T18:31:16.877Z,8.10
2022-11-26T18:33:45.061Z,8.10
2022-11-26T18:36:13.926Z,8.10
2022-11-26T18:38:42.498Z,8.00
2022-11-26T18:41:10.634Z,8.00
2022-11-26T18:43:40.379Z,8.00
2022-11-26T18:46:11.754Z,7.90
2022-11-26T18:48:41.549Z,8.00
2022-11-26T18:51:10.392Z,7.90
2022-11-26T18:53:39.348Z,7.90
2022-11-26T18:56:12.477Z,7.90
2022-11-26T18:58:40.834Z,7.90
2022-11-26T19:01:16.342Z,7.80
2022-11-26T19:03:46.501Z,7.90
2022-11-26T19:06:17.938Z,7.90
2022-11-26T19:08:47.101Z,8.00
2022-11-26T19:11:19.065Z,7.90
2022-11-26T19:13:47.993Z,7.80
2022-11-26T19:16:18.172Z,7.80
2022-11-26T19:18:49.007Z,7.90
2022-11-26T19:21:19.981Z,7.90
2022-11-26T19:23:48.497Z,7.90
2022-11-26T19:26:17.203Z,7.90
2022-11-26T19:28:45.672Z,8.00
2022-11-26T19:31:15.716Z,7.90
2022-11-26T19:33:44.002Z,7.80
2022-11-26T19:36:16.275Z,7.80
2022-11-26T19:38:45.067Z,7.90
2022-11-26T19:41:13.657Z,7.90
2022-11-26T19:43:43.676Z,7.80
2022-11-26T19:46:13.672Z,7.80
2022-11-26T19:48:44.063Z,7.70
2022-11-26T19:51:15.067Z,7.70
2022-11-26T19:53:44.614Z,7.80
2022-11-26T19:56:16.935Z,7.70
2022-11-26T19:58:45.576Z,7.70
2022-11-26T20:01:17.426Z,7.70
2022-11-26T20:03:46.024Z,7.60
2022-11-26T20:06:18.893Z,7.50
2022-11-26T20:08:48.549Z,7.50
2022-11-26T20:11:18.342Z,7.60
2022-11-26T20:13:48.287Z,7.70
2022-11-26T20:16:19.222Z,7.60
2022-11-26T20:18:48.411Z,7.60
2022-11-26T20:21:20.862Z,7.50
2022-11-26T20:23:50.560Z,7.50
2022-11-26T20:26:21.997Z,7.60
2022-11-26T20:28:50.980Z,7.50
2022-11-26T20:31:23.572Z,7.60
2022-11-26T20:33:53.976Z,7.50
2022-11-26T20:36:24.371Z,7.60
2022-11-26T20:38:57.010Z,7.60
2022-11-26T20:41:26.572Z,7.70
2022-11-26T20:43:58.510Z,7.70
2022-11-26T20:46:29.336Z,7.80
2022-11-26T20:48:57.971Z,7.70
2022-11-26T20:51:27.528Z,7.70
2022-11-26T20:53:59.650Z,7.60
2022-11-26T20:56:28.638Z,7.60
2022-11-26T20:58:57.337Z,7.60
2022-11-26T21:01:28.035Z,7.70
2022-11-26T21:03:56.919Z,7.80
2022-11-26T21:06:30.664Z,7.70
2022-11-26T21:09:01.269Z,7.70
2022-11-26T21:11:31.687Z,7.70
2022-11-26T21:14:01.672Z,7.80
2022-11-26T21:16:30.632Z,7.70
2022-11-26T21:18:59.908Z,7.60
2022-11-26T21:21:30.218Z,7.60
2022-11-26T21:23:59.165Z,7.70
2022-11-26T21:26:28.509Z,7.60
2022-11-26T21:28:58.142Z,7.60
2022-11-26T21:31:27.683Z,7.60
2022-11-26T21:33:57.954Z,7.60
2022-11-26T21:36:26.689Z,7.60
2022-11-26T21:38:56.567Z,7.50
2022-11-26T21:41:25.409Z,7.60
2022-11-26T21:43:53.778Z,7.50
2022-11-26T21:46:24.730Z,7.50
2022-11-26T21:48:53.601Z,7.60
2022-11-26T21:51:23.263Z,7.60
2022-11-26T21:53:52.046Z,7.60
2022-11-26T21:56:24.872Z,7.60
2022-11-26T21:58:53.374Z,7.60
2022-11-26T22:01:24.235Z,7.50
2022-11-26T22:03:55.045Z,7.40
2022-11-26T22:06:24.763Z,7.30
2022-11-26T22:08:53.671Z,7.40
2022-11-26T22:11:25.394Z,7.40
2022-11-26T22:13:54.535Z,7.20
2022-11-26T22:16:24.800Z,7.10
2022-11-26T22:18:54.136Z,7.20
2022-11-26T22:21:25.092Z,7.30
2022-11-26T22:23:54.065Z,7.30
2022-11-26T22:26:24.499Z,7.40
2022-11-26T22:28:52.859Z,7.40
2022-11-26T22:31:23.328Z,7.40
2022-11-26T22:33:55.442Z,7.40
2022-11-26T22:36:24.141Z,7.30
2022-11-26T22:38:52.783Z,7.20
2022-11-26T22:41:21.209Z,7.20
2022-11-26T22:43:51.048Z,7.20
2022-11-26T22:46:21.108Z,7.30
2022-11-26T22:48:51.727Z,7.30
2022-11-26T22:51:20.896Z,7.30
2022-11-26T22:53:52.092Z,7.30
2022-11-26T22:56:21.221Z,7.20
2022-11-26T22:58:51.348Z,7.30
2022-11-26T23:01:21.256Z,7.30
2022-11-26T23:03:50.995Z,7.20
2022-11-26T23:06:21.422Z,7.30
2022-11-26T23:08:50.170Z,7.20
2022-11-26T23:11:22.783Z,7.30
2022-11-26T23:13:53.237Z,7.30
2022-11-26T23:16:25.629Z,7.50
2022-11-26T23:18:56.594Z,7.30
2022-11-26T23:21:26.743Z,7.30
2022-11-26T23:23:55.099Z,7.30
2022-11-26T23:26:27.586Z,7.30
2022-11-26T23:28:58.885Z,7.20
2022-11-26T23:31:29.420Z,7.30
2022-11-26T23:33:57.707Z,7.20
2022-11-26T23:36:27.396Z,7.20
2022-11-26T23:38:56.751Z,7.10
2022-11-26T23:41:24.892Z,7.20
2022-11-26T23:43:53.001Z,7.20
2022-11-26T23:46:24.529Z,7.10
2022-11-26T23:48:53.085Z,6.90
2022-11-26T23:51:23.260Z,6.90
2022-11-26T23:53:52.224Z,7.00
2022-11-26T23:56:23.053Z,6.90
2022-11-26T23:58:52.073Z,6.90
